Caribou Municipal Airport Caribou US
ICAO: KCAR
IATA: CAR
Category: Medium
Scheduled Services: No

Elevation: 626 ft
TransAlt. 18000 ft.

Airport Communications:
ASOS:135.125
BOSTON CNTR:124.75
BANGOR RDO:122.3
CTAF/UNICOM:122.8

KCAR Zoom In..

Runways:

(A) RW 01 length 4003 ft width 100 ft
---- / hdg 7

(B) RW 11 length 3016 ft width 75 ft
---- / hdg 107

(C) RW 19 length 4003 ft width 100 ft
---- / hdg 187

(D) RW 29 length 3016 ft width 75 ft
---- / hdg 287

Location; KCAR
Day. 17 / Time. 06.54 Zulu
* Altimeter: 29.85
* Temperature: 20° c. 68°f.
* Wind from: 170° Speed 05 kn.
Dewpoint: 17° c.
Visibility: 10 Statute Miles.
Clouds: Clear (automated report).

KCAR 170654Z AUTO 17005KT 10SM CLR 20/17 A2985 RMK AO2 SLP107 T02000167


Wind From 170°
Speed 05 kn.

 
 
jpsmedia.com for Web Design worldairports.se 2018   terms of use